Time;durP1;ratioP1;P1;durP2;ratioP2;P2;SDS_P1;SDS_P2;PMS_P1;PMS_P2;Temp;Humidity;BMP_temperature;BMP_pressure;BME280_temperature;BME280_humidity;BME280_pressure;Samples;Min_cycle;Max_cycle;Signal;HPM_P1;HPM_P2
2021/10/17 00:13:17;;;;;;;23.45;20.75;;;7.40;99.90;;;;;;4998783;28;20211;-83
2021/10/17 00:15:44;;;;;;;26.20;20.20;;;7.50;99.90;;;;;;4997762;28;20591;-83
2021/10/17 00:18:11;;;;;;;24.70;20.60;;;7.50;99.90;;;;;;4982255;28;20236;-84
2021/10/17 00:20:39;;;;;;;24.88;18.30;;;7.50;99.90;;;;;;5001170;28;20210;-84
2021/10/17 00:23:06;;;;;;;26.02;20.75;;;7.60;99.90;;;;;;5000219;28;20211;-83
2021/10/17 00:25:33;;;;;;;24.90;21.15;;;7.60;99.90;;;;;;4981861;28;20216;-83
2021/10/17 00:27:59;;;;;;;24.85;21.05;;;7.70;99.90;;;;;;4995966;28;20220;-84
2021/10/17 00:30:27;;;;;;;25.75;20.77;;;7.70;99.90;;;;;;5000305;28;20204;-83
2021/10/17 00:32:55;;;;;;;24.98;22.27;;;7.80;99.90;;;;;;4988039;28;20208;-84
2021/10/17 00:35:22;;;;;;;24.25;19.67;;;7.80;99.90;;;;;;4990626;28;20204;-84
2021/10/17 00:37:48;;;;;;;26.40;20.98;;;7.80;99.90;;;;;;5004958;28;20231;-84
2021/10/17 00:40:17;;;;;;;26.73;21.98;;;7.80;99.90;;;;;;4988235;28;20212;-84
2021/10/17 00:42:45;;;;;;;26.85;22.17;;;7.50;99.90;;;;;;4998076;28;20204;-84
2021/10/17 00:45:13;;;;;;;29.02;22.63;;;7.40;99.90;;;;;;5007577;28;20203;-84
2021/10/17 00:47:42;;;;;;;32.67;22.52;;;7.60;99.90;;;;;;5002700;28;20224;-83
2021/10/17 00:50:10;;;;;;;29.95;23.05;;;7.60;99.90;;;;;;5005425;28;20208;-84
2021/10/17 00:52:38;;;;;;;28.92;23.27;;;7.80;99.90;;;;;;4987296;28;20204;-82
2021/10/17 00:55:06;;;;;;;32.13;24.83;;;7.80;99.90;;;;;;5001199;28;20207;-83
2021/10/17 00:57:34;;;;;;;34.70;27.95;;;7.80;99.90;;;;;;4983471;28;20243;-84
2021/10/17 01:00:01;;;;;;;72.57;31.13;;;7.90;99.90;;;;;;4986928;28;20222;-84
2021/10/17 01:02:27;;;;;;;65.97;29.40;;;8.00;99.90;;;;;;4984358;28;20638;-84
2021/10/17 01:04:56;;;;;;;58.90;30.10;;;8.00;99.90;;;;;;4996903;28;20207;-85
2021/10/17 01:07:23;;;;;;;46.33;28.77;;;8.00;99.90;;;;;;5002552;28;20228;-85
2021/10/17 01:09:50;;;;;;;77.18;30.02;;;8.10;99.90;;;;;;5001303;28;20215;-84
2021/10/17 01:12:17;;;;;;;54.75;27.52;;;8.10;99.90;;;;;;5002326;28;20204;-84
2021/10/17 01:14:44;;;;;;;79.30;29.75;;;8.10;99.90;;;;;;5001351;28;20578;-85
2021/10/17 01:17:11;;;;;;;69.88;29.70;;;8.10;99.90;;;;;;5002782;28;20228;-84
2021/10/17 01:19:38;;;;;;;56.50;27.65;;;8.10;99.90;;;;;;4997701;28;20211;-83
2021/10/17 01:22:06;;;;;;;68.13;28.10;;;8.10;99.90;;;;;;5001505;28;20305;-84
2021/10/17 01:24:33;;;;;;;52.75;28.38;;;8.10;99.90;;;;;;4985681;28;20204;-84
2021/10/17 01:27:00;;;;;;;43.55;26.17;;;8.10;99.90;;;;;;4981815;28;20229;-84
2021/10/17 01:29:26;;;;;;;36.30;24.90;;;8.10;99.90;;;;;;4987475;28;20204;-84
2021/10/17 01:31:56;;;;;;;26.33;22.88;;;8.00;99.90;;;;;;4983918;28;20208;-84
2021/10/17 01:34:25;;;;;;;29.33;24.10;;;8.00;99.90;;;;;;4990665;28;20216;-84
2021/10/17 01:36:52;;;;;;;28.92;22.05;;;8.00;99.90;;;;;;4992654;28;20258;-84
2021/10/17 01:39:23;;;;;;;27.88;23.05;;;8.00;99.90;;;;;;4990646;28;20216;-85
2021/10/17 01:41:51;;;;;;;26.65;21.63;;;8.00;99.90;;;;;;4982568;28;20212;-84
2021/10/17 01:44:26;;;;;;;41.72;22.38;;;8.00;99.90;;;;;;4987546;28;20196;-84
2021/10/17 01:46:53;;;;;;;40.30;23.65;;;8.00;99.90;;;;;;4990688;28;20228;-83
2021/10/17 01:49:20;;;;;;;55.85;25.80;;;8.00;99.90;;;;;;4984574;28;20678;-83
2021/10/17 01:51:47;;;;;;;70.15;30.02;;;8.00;99.90;;;;;;4986663;28;20200;-84
2021/10/17 01:54:15;;;;;;;50.22;24.25;;;7.90;99.90;;;;;;5002556;28;20207;-84
2021/10/17 01:56:43;;;;;;;25.00;22.30;;;7.90;99.90;;;;;;4995098;28;20227;-84
2021/10/17 01:59:10;;;;;;;108.38;28.05;;;7.90;99.90;;;;;;4998931;28;20688;-83
2021/10/17 02:01:39;;;;;;;43.17;24.80;;;7.90;99.90;;;;;;4998777;28;20204;-84
2021/10/17 02:04:07;;;;;;;44.95;24.02;;;7.90;99.90;;;;;;4998465;28;20556;-84
2021/10/17 02:06:35;;;;;;;27.85;23.75;;;7.90;99.90;;;;;;4997151;28;20295;-84
2021/10/17 02:09:02;;;;;;;36.65;23.95;;;7.90;99.90;;;;;;4980681;28;20279;-84
2021/10/17 02:11:31;;;;;;;40.17;25.27;;;8.00;99.90;;;;;;4980737;28;20216;-83
2021/10/17 02:14:00;;;;;;;44.72;24.52;;;8.00;99.90;;;;;;4980035;28;20578;-84
2021/10/17 02:16:27;;;;;;;28.20;25.17;;;8.10;99.90;;;;;;4989149;28;20212;-84
2021/10/17 02:18:54;;;;;;;30.90;23.00;;;8.10;99.90;;;;;;4996022;28;20201;-85
2021/10/17 02:21:21;;;;;;;25.90;22.63;;;8.10;99.90;;;;;;4980347;28;20246;-84
2021/10/17 02:23:48;;;;;;;26.75;22.60;;;8.10;99.90;;;;;;4989633;28;20204;-84
2021/10/17 02:26:16;;;;;;;25.20;22.63;;;8.20;99.90;;;;;;4998297;28;20286;-84
2021/10/17 02:28:42;;;;;;;25.88;22.73;;;8.20;99.90;;;;;;4992059;28;20235;-85
2021/10/17 02:31:10;;;;;;;25.83;22.33;;;8.30;99.90;;;;;;4999385;28;20204;-84
2021/10/17 02:33:39;;;;;;;25.02;21.83;;;8.30;99.90;;;;;;4995409;28;20215;-84
2021/10/17 02:36:06;;;;;;;24.73;21.45;;;8.40;99.90;;;;;;4990009;28;20199;-85
2021/10/17 02:38:33;;;;;;;24.17;20.83;;;8.40;99.90;;;;;;5001289;28;20753;-84
2021/10/17 02:41:01;;;;;;;25.92;22.98;;;8.40;99.90;;;;;;4990926;28;20232;-83
2021/10/17 02:43:30;;;;;;;25.90;23.20;;;8.40;99.90;;;;;;4999634;28;20212;-85
2021/10/17 02:45:58;;;;;;;25.38;20.65;;;8.40;99.90;;;;;;4991953;28;20218;-84
2021/10/17 02:48:26;;;;;;;21.85;19.63;;;8.40;99.90;;;;;;4986691;28;20231;-85
2021/10/17 02:50:54;;;;;;;22.35;19.85;;;8.40;99.90;;;;;;4993196;28;20201;-84
2021/10/17 02:53:21;;;;;;;24.52;20.40;;;8.40;99.90;;;;;;4980360;28;20235;-84
2021/10/17 02:55:48;;;;;;;21.52;19.33;;;8.40;99.90;;;;;;4982429;28;20573;-84
2021/10/17 02:58:15;;;;;;;20.92;17.98;;;8.40;99.90;;;;;;4996670;28;20224;-84
2021/10/17 03:00:41;;;;;;;22.35;20.13;;;8.40;99.90;;;;;;4979666;28;20216;-83
2021/10/17 03:03:08;;;;;;;20.90;18.80;;;8.40;99.90;;;;;;4977738;28;20704;-84
2021/10/17 03:05:36;;;;;;;23.20;20.63;;;8.40;99.90;;;;;;4988659;28;20206;-85
2021/10/17 03:08:03;;;;;;;25.50;20.63;;;8.50;99.90;;;;;;4985515;28;20234;-84
2021/10/17 03:10:30;;;;;;;21.17;19.00;;;8.50;99.90;;;;;;5002805;28;20211;-85
2021/10/17 03:12:56;;;;;;;24.10;21.63;;;8.50;99.90;;;;;;4997210;28;20201;-85
2021/10/17 03:15:23;;;;;;;22.05;19.83;;;8.50;99.90;;;;;;4991362;28;20221;-84
2021/10/17 03:17:50;;;;;;;20.85;18.85;;;8.50;99.90;;;;;;4993149;28;20228;-85
2021/10/17 03:20:17;;;;;;;21.88;19.67;;;8.50;99.90;;;;;;4988718;28;20231;-84
2021/10/17 03:22:45;;;;;;;23.50;21.00;;;8.50;99.90;;;;;;4998012;28;20204;-84
2021/10/17 03:25:12;;;;;;;20.67;18.88;;;8.50;99.90;;;;;;4996505;28;20207;-85
2021/10/17 03:27:38;;;;;;;20.08;18.08;;;8.50;99.90;;;;;;4993799;28;20584;-86
2021/10/17 03:30:07;;;;;;;20.95;18.50;;;8.50;99.90;;;;;;5001041;28;20583;-85
2021/10/17 03:32:33;;;;;;;20.23;17.92;;;8.50;99.90;;;;;;4985784;28;20212;-84
2021/10/17 03:35:03;;;;;;;19.38;17.33;;;8.40;99.90;;;;;;4994638;28;20196;-86
2021/10/17 03:37:30;;;;;;;21.60;18.70;;;8.40;99.90;;;;;;5002605;28;20227;-85
2021/10/17 03:39:58;;;;;;;21.58;19.30;;;8.30;99.90;;;;;;4992709;28;20212;-85
2021/10/17 03:42:25;;;;;;;21.23;19.15;;;8.30;99.90;;;;;;4984425;28;20235;-85
2021/10/17 03:44:52;;;;;;;21.00;18.80;;;8.30;99.90;;;;;;5003293;28;20211;-84
2021/10/17 03:47:19;;;;;;;21.08;19.08;;;8.20;99.90;;;;;;5001979;28;20223;-86
2021/10/17 03:49:46;;;;;;;21.13;18.83;;;8.20;99.90;;;;;;4993867;28;20208;-85
2021/10/17 03:52:13;;;;;;;19.83;17.75;;;8.10;99.90;;;;;;4982633;28;20209;-86
2021/10/17 03:54:41;;;;;;;22.00;18.60;;;8.00;99.90;;;;;;4990554;28;20204;-85
2021/10/17 03:57:09;;;;;;;20.98;18.33;;;8.00;99.90;;;;;;4999893;28;20235;-86
2021/10/17 03:59:36;;;;;;;21.13;18.88;;;7.90;99.90;;;;;;4983210;28;20204;-84
2021/10/17 04:02:02;;;;;;;20.80;18.75;;;7.90;99.90;;;;;;4999103;28;20208;-84
2021/10/17 04:04:29;;;;;;;22.90;19.13;;;7.90;99.90;;;;;;4989313;28;20209;-86
2021/10/17 04:06:56;;;;;;;22.30;19.70;;;7.90;99.90;;;;;;5001703;28;20242;-85
2021/10/17 04:09:23;;;;;;;19.42;17.23;;;7.90;99.90;;;;;;4993268;28;20276;-86
2021/10/17 04:11:51;;;;;;;22.60;20.23;;;7.90;99.90;;;;;;4984188;28;20223;-86
2021/10/17 04:14:19;;;;;;;23.25;17.30;;;7.90;99.90;;;;;;4983711;28;20243;-85
2021/10/17 04:16:46;;;;;;;21.70;19.42;;;7.90;99.90;;;;;;4983718;28;20232;-85
2021/10/17 04:19:12;;;;;;;20.55;18.45;;;7.90;99.90;;;;;;4984898;28;20220;-84
2021/10/17 04:21:39;;;;;;;20.60;18.55;;;7.90;99.90;;;;;;4984496;28;20197;-86
2021/10/17 04:24:07;;;;;;;25.42;21.25;;;7.90;99.90;;;;;;4985847;28;20208;-86
2021/10/17 04:26:34;;;;;;;21.15;18.20;;;7.90;99.90;;;;;;4996699;28;20208;-87
2021/10/17 04:29:01;;;;;;;22.30;18.73;;;7.90;99.90;;;;;;5003643;28;20211;-86
2021/10/17 04:31:29;;;;;;;21.23;18.17;;;7.90;99.90;;;;;;4994095;28;20208;-85
2021/10/17 04:33:55;;;;;;;20.65;18.45;;;7.90;99.90;;;;;;4991599;28;20200;-85
2021/10/17 04:36:22;;;;;;;21.25;18.73;;;7.90;99.90;;;;;;4998473;28;20212;-86
2021/10/17 04:38:51;;;;;;;21.38;19.27;;;7.90;99.90;;;;;;5002953;28;20227;-86
2021/10/17 04:41:18;;;;;;;18.98;17.05;;;7.90;99.90;;;;;;4983624;28;20208;-85
2021/10/17 04:43:45;;;;;;;21.98;18.15;;;7.70;99.90;;;;;;4994018;28;20211;-85
2021/10/17 04:46:12;;;;;;;18.60;16.80;;;7.80;99.90;;;;;;5003418;28;20219;-85
2021/10/17 04:48:40;;;;;;;18.55;16.65;;;7.80;99.90;;;;;;5002497;28;20224;-86
2021/10/17 04:51:06;;;;;;;20.30;18.35;;;7.80;99.90;;;;;;4994048;28;20215;-85
2021/10/17 04:53:33;;;;;;;21.67;18.90;;;7.90;99.90;;;;;;4983409;28;20209;-86
2021/10/17 04:56:00;;;;;;;20.85;18.38;;;7.90;99.90;;;;;;4984440;28;20212;-85
2021/10/17 04:58:28;;;;;;;22.65;18.85;;;7.90;99.90;;;;;;5002310;28;20230;-85
2021/10/17 05:00:55;;;;;;;19.90;17.80;;;7.90;99.90;;;;;;4990739;28;20200;-85
2021/10/17 05:03:22;;;;;;;21.80;19.80;;;7.90;99.90;;;;;;5002073;28;20215;-85
2021/10/17 05:05:50;;;;;;;23.00;19.42;;;7.90;99.90;;;;;;4987521;28;20205;-86
2021/10/17 05:08:17;;;;;;;21.60;19.30;;;7.90;99.90;;;;;;5000130;28;20607;-84
2021/10/17 05:10:44;;;;;;;18.50;16.63;;;8.00;99.90;;;;;;4988733;28;20206;-84
2021/10/17 05:13:10;;;;;;;23.52;21.38;;;8.00;99.90;;;;;;4988111;28;20270;-85
2021/10/17 05:15:37;;;;;;;21.40;19.30;;;8.00;99.90;;;;;;5002827;28;20224;-84
2021/10/17 05:18:04;;;;;;;21.83;19.38;;;8.00;99.90;;;;;;4999992;28;20252;-84
2021/10/17 05:20:32;;;;;;;21.25;19.20;;;8.00;99.90;;;;;;4985595;28;20215;-84
2021/10/17 05:23:00;;;;;;;21.25;19.15;;;7.90;99.90;;;;;;4988852;28;20231;-83
2021/10/17 05:25:27;;;;;;;21.17;17.52;;;7.90;99.90;;;;;;5007093;28;20218;-84
2021/10/17 05:27:53;;;;;;;21.50;19.02;;;7.80;99.90;;;;;;5006069;28;20238;-84
2021/10/17 05:30:20;;;;;;;18.00;16.30;;;7.80;99.90;;;;;;4995473;28;20208;-84
2021/10/17 05:32:47;;;;;;;20.30;18.15;;;7.80;99.90;;;;;;4987542;28;20223;-84
2021/10/17 05:35:14;;;;;;;20.20;18.33;;;7.70;99.90;;;;;;5000493;28;20208;-84
2021/10/17 05:37:41;;;;;;;19.20;17.17;;;7.70;99.90;;;;;;5006843;28;20231;-84
2021/10/17 05:40:09;;;;;;;22.88;17.95;;;7.60;99.90;;;;;;5002383;28;20204;-85
2021/10/17 05:42:36;;;;;;;20.95;18.70;;;7.60;99.90;;;;;;4989861;28;20205;-85
2021/10/17 05:45:04;;;;;;;19.38;16.95;;;7.60;99.90;;;;;;4986466;28;20208;-85
2021/10/17 05:47:30;;;;;;;19.95;18.05;;;7.50;99.90;;;;;;4986433;28;20228;-85
2021/10/17 05:49:57;;;;;;;22.13;18.88;;;7.50;99.90;;;;;;4994874;28;20384;-85
2021/10/17 05:52:24;;;;;;;21.50;19.40;;;7.40;99.90;;;;;;4992444;28;20204;-84
2021/10/17 05:54:51;;;;;;;20.83;18.50;;;7.50;99.90;;;;;;4990936;28;20208;-85
2021/10/17 05:57:19;;;;;;;19.42;17.33;;;7.40;99.90;;;;;;5006189;28;20224;-85
2021/10/17 05:59:46;;;;;;;21.02;18.50;;;7.40;99.90;;;;;;5000138;28;20231;-83
2021/10/17 06:02:12;;;;;;;19.88;17.85;;;7.40;99.90;;;;;;4988199;28;20741;-85
2021/10/17 06:04:39;;;;;;;21.55;19.25;;;7.40;99.90;;;;;;4986018;28;20219;-84
2021/10/17 06:07:06;;;;;;;19.67;17.65;;;7.40;99.90;;;;;;4994368;28;20223;-85
2021/10/17 06:09:37;;;;;;;20.08;16.75;;;7.40;99.90;;;;;;5006060;28;20203;-84
2021/10/17 06:12:06;;;;;;;21.88;19.55;;;7.40;99.90;;;;;;5006367;28;20209;-85
2021/10/17 06:14:34;;;;;;;18.90;17.00;;;7.50;99.90;;;;;;5005289;28;20215;-85
2021/10/17 06:17:01;;;;;;;20.85;18.63;;;7.50;99.90;;;;;;5001592;28;20334;-84
2021/10/17 06:19:27;;;;;;;19.52;17.52;;;7.50;99.90;;;;;;4991897;28;20228;-83
2021/10/17 06:21:54;;;;;;;20.98;18.88;;;7.50;99.90;;;;;;4996177;28;20211;-85
2021/10/17 06:24:21;;;;;;;25.15;20.27;;;7.60;99.90;;;;;;4977384;28;20207;-83
2021/10/17 06:26:48;;;;;;;21.15;18.98;;;7.60;99.90;;;;;;4977524;28;20224;-83
2021/10/17 06:29:15;;;;;;;19.85;17.90;;;7.70;99.90;;;;;;4991984;28;20582;-85
2021/10/17 06:31:43;;;;;;;21.40;19.33;;;7.70;99.90;;;;;;4996943;28;20238;-83
2021/10/17 06:34:09;;;;;;;20.02;17.65;;;7.80;99.90;;;;;;4984589;28;20201;-83
2021/10/17 06:36:36;;;;;;;18.98;16.98;;;7.80;99.90;;;;;;4995600;28;20210;-83
2021/10/17 06:39:03;;;;;;;20.75;18.63;;;7.90;99.90;;;;;;4997344;28;20224;-83
2021/10/17 06:41:30;;;;;;;23.30;19.33;;;8.00;99.90;;;;;;4996457;28;20685;-83
2021/10/17 06:43:56;;;;;;;22.02;19.70;;;8.00;99.90;;;;;;4995480;28;20203;-83
2021/10/17 06:46:23;;;;;;;21.13;17.65;;;8.10;99.90;;;;;;4996271;28;20211;-84
2021/10/17 06:48:51;;;;;;;19.60;17.50;;;8.20;99.90;;;;;;4992038;28;20665;-84
2021/10/17 06:51:18;;;;;;;20.88;18.80;;;8.20;99.90;;;;;;4987274;28;20576;-83
2021/10/17 06:53:45;;;;;;;21.10;18.83;;;8.10;99.90;;;;;;4987472;28;20231;-83
2021/10/17 06:56:12;;;;;;;20.55;18.42;;;8.10;99.90;;;;;;4994003;28;20299;-84
2021/10/17 06:58:38;;;;;;;20.80;18.73;;;8.00;99.90;;;;;;4986153;28;20229;-83
2021/10/17 07:01:07;;;;;;;22.95;20.52;;;7.90;99.90;;;;;;4997937;28;20211;-85
2021/10/17 07:03:34;;;;;;;23.17;20.92;;;7.90;99.90;;;;;;4991378;28;20204;-85
2021/10/17 07:06:05;;;;;;;23.10;20.70;;;8.00;99.90;;;;;;4986882;28;20214;-83
2021/10/17 07:08:32;;;;;;;25.73;19.40;;;8.00;99.90;;;;;;4987572;28;20224;-84
2021/10/17 07:10:59;;;;;;;23.13;18.80;;;8.00;99.90;;;;;;4996638;28;20204;-83
2021/10/17 07:13:26;;;;;;;22.70;19.65;;;8.00;99.90;;;;;;4995748;28;20204;-83
2021/10/17 07:15:53;;;;;;;22.27;20.17;;;8.00;99.90;;;;;;4994372;28;20207;-83
2021/10/17 07:18:20;;;;;;;23.98;21.48;;;8.00;99.90;;;;;;4984295;28;20236;-84
2021/10/17 07:20:46;;;;;;;24.98;21.75;;;7.80;99.90;;;;;;4995520;28;20677;-83
2021/10/17 07:23:14;;;;;;;26.83;24.13;;;7.80;99.90;;;;;;4997784;28;20199;-84
2021/10/17 07:25:41;;;;;;;25.75;23.02;;;7.80;99.90;;;;;;4996837;28;20215;-83
2021/10/17 07:28:08;;;;;;;29.05;24.13;;;7.90;99.90;;;;;;4996651;28;20220;-84
2021/10/17 07:30:35;;;;;;;28.30;24.70;;;7.90;99.90;;;;;;4994959;28;20212;-83
2021/10/17 07:33:02;;;;;;;25.52;22.52;;;8.00;99.90;;;;;;4992126;28;20204;-84
2021/10/17 07:35:28;;;;;;;35.00;25.85;;;8.10;99.90;;;;;;4986997;28;20208;-85
2021/10/17 07:37:57;;;;;;;28.90;25.90;;;8.20;99.90;;;;;;5003656;28;20717;-85
2021/10/17 07:40:25;;;;;;;28.98;25.83;;;8.20;99.90;;;;;;4986331;28;20209;-84
2021/10/17 07:42:52;;;;;;;30.83;24.50;;;8.10;99.90;;;;;;5001213;28;20203;-86
2021/10/17 07:45:19;;;;;;;29.02;23.55;;;8.40;99.90;;;;;;5005259;28;20200;-85
2021/10/17 07:47:46;;;;;;;30.58;25.60;;;8.40;99.90;;;;;;5014331;28;20228;-85
2021/10/17 07:50:13;;;;;;;26.13;22.88;;;8.50;99.90;;;;;;5003392;28;20204;-85
2021/10/17 07:52:40;;;;;;;28.50;25.33;;;8.70;99.90;;;;;;5003766;28;20206;-84
2021/10/17 07:55:07;;;;;;;29.33;24.08;;;8.90;99.90;;;;;;4997928;28;20215;-85
2021/10/17 07:57:46;;;;;;;27.88;24.08;;;9.00;99.90;;;;;;4986019;28;20604;-84
2021/10/17 08:00:17;;;;;;;28.85;25.48;;;9.00;99.90;;;;;;4990712;28;20712;-84
2021/10/17 08:02:43;;;;;;;27.08;24.00;;;9.10;99.90;;;;;;4992929;28;20567;-85
2021/10/17 08:05:10;;;;;;;26.45;23.63;;;9.20;99.90;;;;;;4993806;28;20684;-85
2021/10/17 08:07:37;;;;;;;28.00;22.90;;;9.30;99.90;;;;;;4992276;28;20588;-85
2021/10/17 08:10:05;;;;;;;26.98;22.65;;;9.40;99.90;;;;;;4987632;28;20576;-85
2021/10/17 08:12:32;;;;;;;27.33;24.23;;;9.40;99.90;;;;;;4988110;28;20257;-84
2021/10/17 08:15:00;;;;;;;29.50;23.60;;;9.50;99.90;;;;;;4984765;28;20281;-85
2021/10/17 08:17:27;;;;;;;26.15;21.38;;;9.60;99.90;;;;;;4982790;28;21686;-84
2021/10/17 08:19:54;;;;;;;28.60;22.85;;;9.70;99.90;;;;;;4982912;28;20245;-84
2021/10/17 08:22:21;;;;;;;24.75;21.17;;;9.60;99.90;;;;;;4994868;28;20224;-84
2021/10/17 08:24:48;;;;;;;27.27;23.50;;;9.70;99.90;;;;;;5001606;28;20235;-85
2021/10/17 08:27:16;;;;;;;35.30;27.15;;;9.80;99.90;;;;;;4978922;28;20492;-83
2021/10/17 08:29:42;;;;;;;39.73;26.10;;;9.90;99.90;;;;;;4994839;28;20272;-87
2021/10/17 08:32:11;;;;;;;24.35;20.20;;;10.00;99.90;;;;;;4998911;28;20448;-83
2021/10/17 08:34:37;;;;;;;32.67;28.07;;;10.20;99.90;;;;;;4981786;28;20407;-82
2021/10/17 08:37:04;;;;;;;31.83;25.63;;;10.20;99.90;;;;;;4987964;28;20477;-82
2021/10/17 08:39:31;;;;;;;27.30;22.40;;;10.30;99.90;;;;;;4997390;28;20536;-84
2021/10/17 08:41:58;;;;;;;23.53;20.97;;;10.30;99.90;;;;;;4998299;28;20463;-86
2021/10/17 08:44:25;;;;;;;24.07;21.40;;;10.50;99.90;;;;;;4997996;28;20985;-84
2021/10/17 08:46:52;;;;;;;23.73;20.30;;;10.50;99.90;;;;;;4999136;28;20465;-84
2021/10/17 08:49:21;;;;;;;23.33;20.77;;;10.60;99.90;;;;;;4993282;28;20453;-83
2021/10/17 08:51:48;;;;;;;26.40;21.70;;;10.80;99.90;;;;;;4999067;28;20456;-84
2021/10/17 08:54:15;;;;;;;24.33;21.77;;;10.80;99.90;;;;;;4986594;28;20461;-84
2021/10/17 08:56:43;;;;;;;21.13;18.93;;;10.90;99.90;;;;;;4981673;28;20978;-84
2021/10/17 08:59:10;;;;;;;23.93;21.50;;;11.00;99.90;;;;;;4995412;28;20555;-84
2021/10/17 09:01:37;;;;;;;23.50;20.43;;;11.10;99.90;;;;;;5002605;28;20449;-84
2021/10/17 09:04:06;;;;;;;21.10;18.97;;;11.10;99.90;;;;;;4992689;28;20454;-86
2021/10/17 09:06:38;;;;;;;22.83;20.20;;;11.10;99.90;;;;;;4992564;28;20487;-84
2021/10/17 09:09:07;;;;;;;22.37;19.93;;;11.20;99.90;;;;;;5001395;28;20438;-85
2021/10/17 09:11:42;;;;;;;25.60;22.53;;;11.30;99.90;;;;;;5005466;28;20462;-84
2021/10/17 09:14:12;;;;;;;24.17;21.70;;;11.40;99.90;;;;;;4997264;28;20450;-85
2021/10/17 09:16:41;;;;;;;22.57;20.17;;;11.50;99.90;;;;;;5001629;28;20449;-86
2021/10/17 09:19:16;;;;;;;23.27;19.50;;;11.40;99.90;;;;;;4996400;28;20492;-84
2021/10/17 09:21:57;;;;;;;24.50;21.10;;;11.50;99.90;;;;;;4985605;28;20441;-84
2021/10/17 09:24:29;;;;;;;19.60;17.60;;;11.70;99.90;;;;;;4988440;28;20450;-86
2021/10/17 09:27:07;;;;;;;22.53;20.23;;;11.90;99.90;;;;;;4983709;28;20471;-84
2021/10/17 09:29:35;;;;;;;20.57;18.53;;;12.10;99.90;;;;;;4998062;28;20454;-84
2021/10/17 09:32:02;;;;;;;18.93;17.07;;;12.20;99.90;;;;;;4989942;28;20463;-84
2021/10/17 09:34:30;;;;;;;19.50;17.60;;;12.20;99.90;;;;;;4984403;28;20557;-84
2021/10/17 09:37:09;;;;;;;23.97;21.57;;;12.10;99.90;;;;;;4988992;28;20986;-84
2021/10/17 09:39:37;;;;;;;20.93;18.73;;;12.00;99.90;;;;;;4993863;28;20480;-85
2021/10/17 09:42:05;;;;;;;20.30;18.30;;;12.10;99.90;;;;;;4984871;28;20444;-84
2021/10/17 09:44:42;;;;;;;22.20;19.87;;;12.20;99.90;;;;;;4982901;28;20462;-84
2021/10/17 09:47:10;;;;;;;20.03;18.00;;;12.20;99.90;;;;;;4997658;28;20561;-84
2021/10/17 09:49:37;;;;;;;22.43;20.17;;;12.40;99.90;;;;;;4988069;28;20458;-83
2021/10/17 09:52:18;;;;;;;21.43;19.23;;;12.60;99.90;;;;;;4998039;28;20542;-84
2021/10/17 09:54:47;;;;;;;20.67;18.70;;;12.80;99.90;;;;;;4996979;28;20448;-85
2021/10/17 09:57:14;;;;;;;21.67;19.40;;;12.90;99.90;;;;;;4988244;28;20598;-86
2021/10/17 09:59:41;;;;;;;21.57;19.30;;;12.90;99.90;;;;;;4985945;28;20482;-84
2021/10/17 10:02:12;;;;;;;22.07;20.10;;;12.90;99.90;;;;;;4985453;28;20620;-83
2021/10/17 10:04:41;;;;;;;19.70;17.90;;;13.00;99.90;;;;;;4994099;28;20459;-84
2021/10/17 10:07:09;;;;;;;18.30;16.33;;;13.30;99.90;;;;;;4995693;28;20463;-84
2021/10/17 10:09:38;;;;;;;17.73;16.03;;;13.50;99.90;;;;;;4997329;28;20451;-83
2021/10/17 10:12:07;;;;;;;18.80;16.90;;;13.80;99.90;;;;;;4996180;28;20458;-85
2021/10/17 10:14:34;;;;;;;18.87;16.97;;;14.00;99.90;;;;;;4992313;28;20459;-84
2021/10/17 10:17:02;;;;;;;18.63;16.83;;;14.20;99.90;;;;;;4983663;28;20459;-85
2021/10/17 10:19:30;;;;;;;18.17;16.33;;;14.30;99.90;;;;;;4999404;28;20483;-83
2021/10/17 10:21:58;;;;;;;17.20;15.80;;;14.40;99.90;;;;;;5001192;28;20462;-84
2021/10/17 10:24:25;;;;;;;18.43;16.53;;;14.50;99.90;;;;;;5000968;28;20457;-85
2021/10/17 10:26:54;;;;;;;16.87;15.17;;;14.70;99.90;;;;;;5000519;28;20835;-84
2021/10/17 10:29:25;;;;;;;16.73;14.93;;;14.80;99.90;;;;;;4998856;28;20457;-84
2021/10/17 10:31:53;;;;;;;18.20;16.50;;;15.10;99.90;;;;;;4988984;28;20461;-82
2021/10/17 10:35:03;;;;;;;19.63;17.67;;;15.40;99.90;;;;;;5000315;28;20972;-82
2021/10/17 10:37:32;;;;;;;17.93;16.10;;;15.40;99.90;;;;;;4995488;28;20479;-83
2021/10/17 10:40:15;;;;;;;16.70;15.20;;;15.50;99.90;;;;;;4998724;28;20511;-83
2021/10/17 10:42:46;;;;;;;18.20;16.50;;;15.50;99.90;;;;;;5000167;28;20455;-83
2021/10/17 10:45:32;;;;;;;17.53;15.97;;;15.70;99.90;;;;;;4998519;28;20456;-82
2021/10/17 10:48:20;;;;;;;17.83;15.73;;;16.20;99.90;;;;;;4999205;28;20847;-83
2021/10/17 10:50:49;;;;;;;17.17;15.60;;;16.30;99.70;;;;;;4982266;28;20463;-83
2021/10/17 10:53:51;;;;;;;17.80;16.00;;;16.50;98.90;;;;;;4980677;28;20485;-83
2021/10/17 10:56:40;;;;;;;17.47;15.70;;;16.20;98.70;;;;;;4980710;28;20446;-82
2021/10/17 10:59:21;;;;;;;18.00;16.20;;;16.10;99.00;;;;;;4991548;28;20460;-85
2021/10/17 11:01:56;;;;;;;18.40;16.70;;;16.20;99.50;;;;;;4994247;28;20480;-84
2021/10/17 11:05:01;;;;;;;17.57;15.77;;;16.60;99.50;;;;;;4980419;28;20449;-81
2021/10/17 11:07:34;;;;;;;17.73;16.00;;;16.90;98.10;;;;;;5018418;23;20623;-84
2021/10/17 11:10:49;;;;;;;16.63;15.13;;;17.10;97.80;;;;;;5001693;28;20452;-84
2021/10/17 11:13:30;;;;;;;17.13;15.33;;;17.10;97.30;;;;;;5004810;28;20426;-86
2021/10/17 11:16:00;;;;;;;18.70;16.83;;;17.40;97.70;;;;;;5003025;28;20456;-83
2021/10/17 11:18:36;;;;;;;17.47;15.87;;;17.80;97.10;;;;;;5004086;28;20828;-83
2021/10/17 11:21:04;;;;;;;17.53;15.93;;;18.10;96.00;;;;;;5002729;28;20484;-83
2021/10/17 11:23:33;;;;;;;18.97;17.27;;;18.10;95.40;;;;;;5003188;28;20461;-84
2021/10/17 11:26:03;;;;;;;17.33;15.73;;;18.10;95.50;;;;;;5004307;28;20484;-85
2021/10/17 11:28:31;;;;;;;19.13;17.53;;;18.00;95.30;;;;;;5004280;28;21038;-83
2021/10/17 11:31:08;;;;;;;19.53;17.47;;;18.10;94.90;;;;;;5003886;28;20460;-84
2021/10/17 11:33:35;;;;;;;21.03;19.00;;;17.90;95.00;;;;;;5002595;28;20791;-84
2021/10/17 11:36:03;;;;;;;19.97;18.07;;;18.10;95.10;;;;;;5002489;28;20462;-84
2021/10/17 11:38:30;;;;;;;18.27;16.57;;;18.40;95.10;;;;;;5002976;28;20466;-85
2021/10/17 11:41:05;;;;;;;18.57;16.90;;;18.70;94.40;;;;;;5003705;28;20485;-83
2021/10/17 11:43:39;;;;;;;18.80;16.80;;;19.00;93.40;;;;;;5003031;28;20448;-84
2021/10/17 11:46:10;;;;;;;19.27;17.57;;;19.00;93.60;;;;;;5002115;28;20439;-84
2021/10/17 11:48:38;;;;;;;18.60;16.90;;;19.00;93.10;;;;;;5002631;28;20478;-84
2021/10/17 11:51:08;;;;;;;18.30;16.50;;;19.10;93.20;;;;;;5001722;28;20450;-85
2021/10/17 11:53:34;;;;;;;18.20;16.33;;;18.50;92.70;;;;;;5002494;28;20457;-84
2021/10/17 11:56:01;;;;;;;20.50;18.40;;;17.90;93.50;;;;;;5001894;28;20461;-83
2021/10/17 11:58:30;;;;;;;18.30;16.30;;;17.90;94.50;;;;;;5002257;28;20494;-85
2021/10/17 12:01:05;;;;;;;18.33;16.60;;;18.00;94.20;;;;;;5002150;28;20497;-84
2021/10/17 12:03:33;;;;;;;18.20;16.60;;;18.30;94.20;;;;;;5002019;28;21037;-84
2021/10/17 12:06:01;;;;;;;17.83;16.23;;;18.60;93.50;;;;;;5002032;28;20560;-84
2021/10/17 12:08:30;;;;;;;18.30;16.50;;;18.70;93.50;;;;;;5003532;28;20481;-82
2021/10/17 12:10:59;;;;;;;17.40;15.73;;;19.20;93.30;;;;;;5001412;28;20916;-83
2021/10/17 12:13:26;;;;;;;17.30;15.50;;;19.50;92.80;;;;;;5002226;28;20452;-84
2021/10/17 12:16:04;;;;;;;18.40;16.50;;;19.50;91.70;;;;;;5001969;28;20443;-85
2021/10/17 12:18:33;;;;;;;16.07;14.60;;;18.70;92.30;;;;;;5001444;28;20462;-84
2021/10/17 12:21:00;;;;;;;17.50;15.80;;;18.50;93.30;;;;;;5004279;28;20500;-84
2021/10/17 12:23:27;;;;;;;17.37;15.80;;;18.40;93.00;;;;;;5002478;28;20950;-83
2021/10/17 12:25:54;;;;;;;16.60;14.97;;;17.90;93.00;;;;;;5001898;28;20449;-84
2021/10/17 12:28:21;;;;;;;16.57;14.87;;;17.80;93.70;;;;;;5001535;28;20474;-84
2021/10/17 12:30:50;;;;;;;16.03;14.60;;;17.60;94.10;;;;;;5000989;28;20445;-84
2021/10/17 12:33:32;;;;;;;15.53;14.17;;;17.40;94.60;;;;;;5002450;28;20457;-84
2021/10/17 12:36:02;;;;;;;17.60;15.87;;;17.70;94.70;;;;;;5001091;28;20441;-84
2021/10/17 12:38:35;;;;;;;17.27;15.47;;;17.60;94.30;;;;;;5002536;28;20489;-84
2021/10/17 12:41:04;;;;;;;15.90;14.47;;;17.30;94.30;;;;;;5002314;28;20491;-85
2021/10/17 12:43:33;;;;;;;14.93;13.60;;;17.50;94.90;;;;;;5001413;28;20457;-84
2021/10/17 12:46:12;;;;;;;15.67;14.07;;;17.80;94.70;;;;;;5002603;28;20993;-85
2021/10/17 12:48:41;;;;;;;16.57;14.67;;;18.10;94.00;;;;;;5001711;28;20485;-84
2021/10/17 12:51:32;;;;;;;14.10;12.70;;;18.10;94.20;;;;;;5001050;28;20453;-84
2021/10/17 12:54:07;;;;;;;17.60;15.90;;;18.00;94.20;;;;;;5001570;28;20438;-84